createdAt,value
2018-05-09T00:01:43.580Z,101125.77
2018-05-09T00:04:10.472Z,101123.20
2018-05-09T00:06:37.372Z,101120.99
2018-05-09T00:09:04.377Z,101119.45
2018-05-09T00:11:31.283Z,101122.97
2018-05-09T00:13:58.155Z,101121.39
2018-05-09T00:16:25.961Z,101124.53
2018-05-09T00:18:52.835Z,101124.36
2018-05-09T00:21:19.776Z,101123.34
2018-05-09T00:23:47.484Z,101119.02
2018-05-09T00:26:14.632Z,101117.08
2018-05-09T00:28:42.248Z,101121.02
2018-05-09T00:31:09.185Z,101119.81
2018-05-09T00:33:36.068Z,101118.11
2018-05-09T00:36:03.707Z,101119.23
2018-05-09T00:38:30.738Z,101116.64
2018-05-09T00:40:58.392Z,101119.05
2018-05-09T00:43:25.294Z,101111.98
2018-05-09T00:45:53.164Z,101118.52
2018-05-09T00:48:20.805Z,101114.53
2018-05-09T00:50:47.675Z,101110.52
2018-05-09T00:53:15.355Z,101114.29
2018-05-09T00:55:42.245Z,101102.89
2018-05-09T00:58:09.127Z,101102.73
2018-05-09T01:00:36.831Z,101109.92
2018-05-09T01:03:03.750Z,101108.91
2018-05-09T01:05:30.766Z,101107.16
2018-05-09T01:07:57.712Z,101108.88
2018-05-09T01:10:24.592Z,101107.63
2018-05-09T01:12:51.484Z,101105.27
2018-05-09T01:15:19.207Z,101096.08
2018-05-09T01:17:46.088Z,101100.59
2018-05-09T01:20:13.005Z,101095.66
2018-05-09T01:22:39.953Z,101095.91
2018-05-09T01:25:06.840Z,101092.80
2018-05-09T01:27:33.736Z,101087.61
2018-05-09T01:30:00.694Z,101094.05
2018-05-09T01:32:27.592Z,101096.09
2018-05-09T01:34:55.216Z,101100.55
2018-05-09T01:37:22.145Z,101100.14
2018-05-09T01:39:49.029Z,101092.06
2018-05-09T01:42:15.907Z,101096.56
2018-05-09T01:44:42.867Z,101092.09
2018-05-09T01:47:09.744Z,101090.63
2018-05-09T01:49:36.635Z,101095.30
2018-05-09T01:52:04.364Z,101092.52
2018-05-09T01:54:31.245Z,101091.02
2018-05-09T01:56:58.872Z,101095.38
2018-05-09T01:59:25.815Z,101083.26
2018-05-09T02:01:52.704Z,101083.42
2018-05-09T02:04:20.334Z,101087.09
2018-05-09T02:06:47.411Z,101085.73
2018-05-09T02:09:15.050Z,101079.42
2018-05-09T02:11:41.925Z,101085.75
2018-05-09T02:14:09.641Z,101079.41
2018-05-09T02:16:36.528Z,101076.83
2018-05-09T02:19:04.260Z,101075.81
2018-05-09T02:21:31.191Z,101080.27
2018-05-09T02:23:58.174Z,101080.38
2018-05-09T02:26:25.040Z,101078.08
2018-05-09T02:28:52.812Z,101072.95
2018-05-09T02:31:19.708Z,101081.75
2018-05-09T02:33:46.585Z,101076.11
2018-05-09T02:36:13.644Z,101078.03
2018-05-09T02:38:41.265Z,101077.48
2018-05-09T02:41:08.156Z,101080.66
2018-05-09T02:43:35.313Z,101076.08
2018-05-09T02:46:02.236Z,101079.73
2018-05-09T02:48:29.866Z,101074.83
2018-05-09T02:50:56.798Z,101076.39
2018-05-09T02:53:23.688Z,101079.19
2018-05-09T02:55:51.308Z,101080.16
2018-05-09T02:58:18.230Z,101080.48
2018-05-09T03:00:45.128Z,101076.86
2018-05-09T03:03:12.032Z,101080.19
2018-05-09T03:05:39.053Z,101078.19
2018-05-09T03:08:05.960Z,101084.13
2018-05-09T03:10:32.844Z,101077.19
2018-05-09T03:12:59.762Z,101082.48
2018-05-09T03:15:26.646Z,101082.81
2018-05-09T03:17:53.537Z,101081.86
2018-05-09T03:20:20.942Z,101084.49
2018-05-09T03:22:48.553Z,101087.78
2018-05-09T03:25:15.439Z,101084.14
2018-05-09T03:27:42.595Z,101093.68
2018-05-09T03:30:09.489Z,101085.91
2018-05-09T03:32:36.380Z,101088.06
2018-05-09T03:35:04.103Z,101080.78
2018-05-09T03:37:30.998Z,101088.03
2018-05-09T03:39:57.889Z,101081.30
2018-05-09T03:42:25.593Z,101084.20
2018-05-09T03:44:53.224Z,101087.18
2018-05-09T03:47:20.091Z,101091.47
2018-05-09T03:49:47.762Z,101085.48
2018-05-09T03:52:15.383Z,101083.02
2018-05-09T03:54:42.303Z,101079.28
2018-05-09T03:57:09.235Z,101081.64
2018-05-09T03:59:36.116Z,101078.71
2018-05-09T04:02:21.339Z,101085.75
2018-05-09T04:05:07.231Z,101081.83
2018-05-09T04:10:39.639Z,101080.48
2018-05-09T04:13:06.603Z,101083.47
2018-05-09T04:15:33.465Z,101086.80
2018-05-09T04:18:00.340Z,101086.87
2018-05-09T04:20:27.348Z,101090.33
2018-05-09T04:22:54.229Z,101093.45
2018-05-09T04:25:21.108Z,101092.62
2018-05-09T04:27:48.055Z,101097.10
2018-05-09T04:30:14.939Z,101095.85
2018-05-09T04:32:41.828Z,101103.58
2018-05-09T04:35:09.509Z,101095.33
2018-05-09T04:37:36.403Z,101093.56
2018-05-09T04:40:03.326Z,101100.23
2018-05-09T04:42:30.304Z,101099.75
2018-05-09T04:44:57.225Z,101094.92
2018-05-09T04:47:24.111Z,101091.23
2018-05-09T04:49:52.809Z,101095.95
2018-05-09T04:52:19.726Z,101087.84
2018-05-09T04:54:46.621Z,101084.58
2018-05-09T04:57:13.564Z,101087.66
2018-05-09T04:59:40.441Z,101087.40
2018-05-09T05:02:07.412Z,101090.48
2018-05-09T05:04:34.359Z,101093.34
2018-05-09T05:07:01.316Z,101094.73
2018-05-09T05:09:28.167Z,101092.54
2018-05-09T05:11:55.845Z,101094.06
2018-05-09T05:14:22.757Z,101102.59
2018-05-09T05:16:49.700Z,101099.78
2018-05-09T05:19:16.655Z,101092.30
2018-05-09T05:21:43.532Z,101097.00
2018-05-09T05:24:10.460Z,101096.65
2018-05-09T05:26:38.127Z,101100.41
2018-05-09T05:29:05.800Z,101100.34
2018-05-09T05:31:33.423Z,101100.98
2018-05-09T05:34:00.361Z,101104.34
2018-05-09T05:36:27.239Z,101100.73
2018-05-09T05:38:54.160Z,101099.78
2018-05-09T05:41:21.153Z,101096.11
2018-05-09T05:43:48.131Z,101091.31
2018-05-09T05:46:15.005Z,101099.34
2018-05-09T05:48:42.091Z,101099.83
2018-05-09T05:51:09.708Z,101093.79
2018-05-09T05:53:36.601Z,101099.61
2018-05-09T05:56:03.584Z,101092.66
2018-05-09T05:58:30.430Z,101091.44
2018-05-09T06:00:57.320Z,101102.55
2018-05-09T06:03:25.117Z,101090.71
2018-05-09T06:05:51.991Z,101092.48
2018-05-09T06:08:18.876Z,101097.09
2018-05-09T06:10:46.561Z,101093.25
2018-05-09T06:13:13.452Z,101091.52
2018-05-09T06:15:40.338Z,101089.67
2018-05-09T06:18:08.015Z,101093.08
2018-05-09T06:20:34.939Z,101090.74
2018-05-09T06:23:02.580Z,101099.83
2018-05-09T06:25:29.523Z,101091.50
2018-05-09T06:27:56.453Z,101097.19
2018-05-09T06:30:23.346Z,101102.94
2018-05-09T06:32:51.080Z,101100.53
2018-05-09T06:35:17.973Z,101099.19
2018-05-09T06:37:44.927Z,101104.49
2018-05-09T06:40:11.821Z,101102.61
2018-05-09T06:42:38.788Z,101096.00
2018-05-09T06:45:06.410Z,101100.50
2018-05-09T06:47:33.526Z,101099.01
2018-05-09T06:50:00.431Z,101098.70
2018-05-09T06:52:28.083Z,101095.35
2018-05-09T06:54:55.017Z,101106.88
2018-05-09T06:57:21.908Z,101102.47
2018-05-09T06:59:49.573Z,101097.65
2018-05-09T07:02:16.486Z,101099.89
2018-05-09T07:04:43.372Z,101106.24
2018-05-09T07:07:10.299Z,101109.86
2018-05-09T07:09:37.975Z,101106.00
2018-05-09T07:12:04.888Z,101103.45
2018-05-09T07:14:31.830Z,101110.97
2018-05-09T07:16:58.919Z,101115.31
2018-05-09T07:19:26.550Z,101114.72
2018-05-09T07:21:53.444Z,101115.01
2018-05-09T07:24:20.473Z,101120.87
2018-05-09T07:26:47.397Z,101118.95
2018-05-09T07:29:14.279Z,101117.98
2018-05-09T07:31:41.200Z,101111.34
2018-05-09T07:34:08.083Z,101102.25
2018-05-09T07:36:34.967Z,101109.92
2018-05-09T07:39:02.109Z,101104.73
2018-05-09T07:41:29.003Z,101108.85
2018-05-09T07:43:56.000Z,101111.59
2018-05-09T07:46:23.191Z,101113.80
2018-05-09T07:48:50.881Z,101113.81
2018-05-09T07:51:17.813Z,101106.59
2018-05-09T07:53:44.743Z,101113.57
2018-05-09T07:56:12.352Z,101107.87
2018-05-09T07:58:39.271Z,101110.37
2018-05-09T08:01:06.204Z,101109.08
2018-05-09T08:03:33.833Z,101108.89
2018-05-09T08:06:00.743Z,101105.11
2018-05-09T08:08:27.744Z,101110.88
2018-05-09T08:10:54.616Z,101097.84
2018-05-09T08:13:21.492Z,101108.61
2018-05-09T08:15:48.412Z,101100.02
2018-05-09T08:18:15.300Z,101105.84
2018-05-09T08:20:42.204Z,101107.22
2018-05-09T08:23:09.122Z,101102.95
2018-05-09T08:25:36.746Z,101104.14
2018-05-09T08:28:03.689Z,101108.63
2018-05-09T08:30:30.648Z,101106.34
2018-05-09T08:32:57.535Z,101112.95
2018-05-09T08:35:24.425Z,101106.85
2018-05-09T08:37:51.352Z,101115.77
2018-05-09T08:40:18.245Z,101112.70
2018-05-09T08:42:45.115Z,101114.25
2018-05-09T08:45:12.820Z,101112.95
2018-05-09T08:47:39.723Z,101112.23
2018-05-09T08:50:06.617Z,101115.29
2018-05-09T08:52:33.649Z,101109.94
2018-05-09T08:55:00.539Z,101112.61
2018-05-09T08:57:28.164Z,101102.56
2018-05-09T08:59:55.083Z,101106.31
2018-05-09T09:02:21.948Z,101104.53
2018-05-09T09:04:48.828Z,101102.30
2018-05-09T09:07:16.011Z,101097.41
2018-05-09T09:09:43.631Z,101098.56
2018-05-09T09:12:10.529Z,101092.80
2018-05-09T09:14:37.459Z,101085.66
2018-05-09T09:17:05.158Z,101087.81
2018-05-09T09:19:32.036Z,101084.47
2018-05-09T09:21:58.980Z,101084.31
2018-05-09T09:24:25.875Z,101086.98
2018-05-09T09:26:52.796Z,101088.13
2018-05-09T09:29:20.664Z,101090.15
2018-05-09T09:31:48.323Z,101084.33
2018-05-09T09:34:15.960Z,101083.20
2018-05-09T09:36:42.878Z,101085.43
2018-05-09T09:39:09.746Z,101075.70
2018-05-09T09:41:36.679Z,101077.87
2018-05-09T09:44:03.607Z,101078.14
2018-05-09T09:46:30.499Z,101074.16
2018-05-09T09:48:57.372Z,101077.16
2018-05-09T09:51:25.243Z,101071.66
2018-05-09T09:53:52.877Z,101069.88
2018-05-09T09:56:19.760Z,101069.62
2018-05-09T09:58:46.878Z,101066.20
2018-05-09T10:01:13.764Z,101067.16
2018-05-09T10:03:40.648Z,101063.12
2018-05-09T10:06:07.610Z,101061.42
2018-05-09T10:08:34.523Z,101059.30
2018-05-09T10:11:02.165Z,101063.87
2018-05-09T10:13:29.295Z,101059.97
2018-05-09T10:15:56.986Z,101053.50
2018-05-09T10:18:23.845Z,101056.80
2018-05-09T10:20:50.778Z,101059.97
2018-05-09T10:23:17.690Z,101054.92
2018-05-09T10:25:45.320Z,101047.85
2018-05-09T10:28:13.342Z,101041.39
2018-05-09T10:30:40.212Z,101042.27
2018-05-09T10:33:07.113Z,101046.75
2018-05-09T10:35:34.792Z,101044.56
2018-05-09T10:38:01.680Z,101043.39
2018-05-09T10:40:28.668Z,101050.57
2018-05-09T10:42:56.427Z,101038.06
2018-05-09T10:45:24.056Z,101044.42
2018-05-09T10:47:50.944Z,101039.05
2018-05-09T10:50:18.720Z,101030.78
2018-05-09T10:52:46.336Z,101034.67
2018-05-09T10:55:13.227Z,101039.36
2018-05-09T10:57:40.348Z,101034.73
2018-05-09T11:00:07.228Z,101030.92
2018-05-09T11:02:34.136Z,101037.79
2018-05-09T11:05:01.167Z,101034.10
2018-05-09T11:07:28.043Z,101037.41
2018-05-09T11:09:55.661Z,101036.16
2018-05-09T11:12:22.588Z,101029.61
2018-05-09T11:14:49.467Z,101029.98
2018-05-09T11:17:16.356Z,101024.88
2018-05-09T11:19:43.293Z,101020.28
2018-05-09T11:22:10.917Z,101023.67
2018-05-09T11:24:37.857Z,101022.86
2018-05-09T11:27:04.784Z,101022.05
2018-05-09T11:29:31.677Z,101021.58
2018-05-09T11:31:58.569Z,101016.50
2018-05-09T11:34:25.503Z,101013.34
2018-05-09T11:36:52.375Z,101006.97
2018-05-09T11:39:19.265Z,101009.48
2018-05-09T11:41:47.015Z,100999.21
2018-05-09T11:44:13.908Z,101002.08
2018-05-09T11:46:40.796Z,100999.14
2018-05-09T11:49:07.734Z,100992.58
2018-05-09T11:51:34.660Z,100992.49
2018-05-09T11:54:01.553Z,100996.30
2018-05-09T11:56:28.730Z,100992.83
2018-05-09T11:58:55.611Z,100979.84
2018-05-09T12:01:23.248Z,100982.28
2018-05-09T12:03:50.381Z,100972.91
2018-05-09T12:06:17.257Z,100975.47
2018-05-09T12:08:44.151Z,100979.98
2018-05-09T12:11:11.488Z,100972.48
2018-05-09T12:13:38.377Z,100970.87
2018-05-09T12:16:05.317Z,100971.27
2018-05-09T12:18:33.041Z,100964.49
2018-05-09T12:20:59.957Z,100967.06
2018-05-09T12:23:26.834Z,100969.09
2018-05-09T12:25:53.758Z,100960.47
2018-05-09T12:28:20.645Z,100958.42
2018-05-09T12:30:47.542Z,100944.30
2018-05-09T12:33:14.560Z,100947.36
2018-05-09T12:35:42.177Z,100944.29
2018-05-09T12:38:09.092Z,100946.56
2018-05-09T12:40:36.033Z,100944.16
2018-05-09T12:43:02.981Z,100939.52
2018-05-09T12:45:29.884Z,100936.95
2018-05-09T12:47:56.875Z,100924.84
2018-05-09T12:50:23.765Z,100922.66
2018-05-09T12:52:50.654Z,100920.61
2018-05-09T12:55:17.585Z,100920.43
2018-05-09T12:57:45.207Z,100922.23
2018-05-09T13:00:12.096Z,100920.94
2018-05-09T13:02:39.251Z,100915.03
2018-05-09T13:05:06.136Z,100911.09
2018-05-09T13:07:33.079Z,100902.65
2018-05-09T13:10:00.008Z,100906.29
2018-05-09T13:12:26.900Z,100897.06
2018-05-09T13:14:53.776Z,100895.01
2018-05-09T13:17:20.699Z,100885.89
2018-05-09T13:19:47.628Z,100884.53
2018-05-09T13:22:14.508Z,100876.06
2018-05-09T13:24:42.376Z,100875.05
2018-05-09T13:27:09.343Z,100876.08
2018-05-09T13:29:36.278Z,100875.70
2018-05-09T13:32:03.225Z,100872.38
2018-05-09T13:34:30.342Z,100864.42
2018-05-09T13:36:57.269Z,100853.42
2018-05-09T13:39:24.204Z,100867.73
2018-05-09T13:41:51.873Z,100853.30
2018-05-09T13:44:18.760Z,100857.91
2018-05-09T13:46:46.537Z,100851.52
2018-05-09T13:49:14.165Z,100853.10
2018-05-09T13:51:41.107Z,100848.73
2018-05-09T13:54:08.788Z,100847.05
2018-05-09T13:56:36.407Z,100852.47
2018-05-09T13:59:04.035Z,100845.77
2018-05-09T14:01:30.978Z,100844.34
2018-05-09T14:03:58.616Z,100838.42
2018-05-09T14:06:26.253Z,100832.63
2018-05-09T14:08:53.183Z,100835.64
2018-05-09T14:11:20.069Z,100825.92
2018-05-09T14:13:46.962Z,100831.42
2018-05-09T14:16:13.910Z,100822.83
2018-05-09T14:18:40.792Z,100818.64
2018-05-09T14:21:07.675Z,100813.98
2018-05-09T14:23:35.355Z,100815.88
2018-05-09T14:26:02.264Z,100810.44
2018-05-09T14:28:29.942Z,100812.38
2018-05-09T14:30:57.619Z,100806.75
2018-05-09T14:33:24.549Z,100804.02
2018-05-09T14:35:52.173Z,100806.17
2018-05-09T14:38:19.112Z,100801.84
2018-05-09T14:40:46.057Z,100801.33
2018-05-09T14:43:12.915Z,100802.25
2018-05-09T14:45:39.835Z,100797.38
2018-05-09T14:48:06.847Z,100801.36
2018-05-09T14:50:34.467Z,100800.87
2018-05-09T14:53:01.404Z,100794.86
2018-05-09T14:55:28.285Z,100791.59
2018-05-09T14:57:55.162Z,100790.48
2018-05-09T15:00:22.355Z,100789.27
2018-05-09T15:02:49.914Z,100788.80
2018-05-09T15:05:16.806Z,100783.92
2018-05-09T15:07:43.760Z,100789.83
2018-05-09T15:10:10.655Z,100788.03
2018-05-09T15:12:37.545Z,100782.91
2018-05-09T15:15:05.404Z,100796.17
2018-05-09T15:17:33.137Z,100785.16
2018-05-09T15:20:00.040Z,100786.73
2018-05-09T15:22:27.097Z,100783.01
2018-05-09T15:24:53.980Z,100783.39
2018-05-09T15:27:20.868Z,100786.56
2018-05-09T15:29:47.838Z,100784.40
2018-05-09T15:32:14.727Z,100781.32
2018-05-09T15:34:41.603Z,100785.97
2018-05-09T15:37:08.560Z,100783.66
2018-05-09T15:39:35.433Z,100781.08
2018-05-09T15:42:02.335Z,100783.43
2018-05-09T15:44:29.261Z,100779.55
2018-05-09T15:46:56.888Z,100779.13
2018-05-09T15:49:23.778Z,100777.55
2018-05-09T15:51:51.656Z,100778.30
2018-05-09T15:54:18.547Z,100773.97
2018-05-09T15:56:45.441Z,100763.84
2018-05-09T15:59:13.108Z,100768.80
2018-05-09T16:01:40.029Z,100769.58
2018-05-09T16:04:07.656Z,100765.23
2018-05-09T16:06:34.608Z,100767.21
2018-05-09T16:09:02.310Z,100763.81
2018-05-09T16:11:29.972Z,100765.56
2018-05-09T16:13:57.647Z,100765.66
2018-05-09T16:16:24.564Z,100765.34
2018-05-09T16:18:51.519Z,100765.80
2018-05-09T16:21:18.473Z,100767.98
2018-05-09T16:23:46.112Z,100759.59
2018-05-09T16:26:13.008Z,100753.05
2018-05-09T16:28:40.148Z,100758.64
2018-05-09T16:31:07.056Z,100761.22
2018-05-09T16:33:33.942Z,100759.37
2018-05-09T16:36:00.892Z,100748.55
2018-05-09T16:38:27.792Z,100758.87
2018-05-09T16:40:54.675Z,100749.89
2018-05-09T16:43:21.589Z,100746.53
2018-05-09T16:45:48.482Z,100746.22
2018-05-09T16:48:15.356Z,100747.38
2018-05-09T16:50:42.301Z,100745.86
2018-05-09T16:53:09.238Z,100741.11
2018-05-09T16:55:36.112Z,100740.78
2018-05-09T16:58:03.048Z,100744.73
2018-05-09T17:00:30.004Z,100743.19
2018-05-09T17:02:56.929Z,100740.36
2018-05-09T17:05:23.905Z,100745.91
2018-05-09T17:07:50.864Z,100743.02
2018-05-09T17:10:18.489Z,100740.09
2018-05-09T17:12:46.270Z,100740.92
2018-05-09T17:15:13.167Z,100744.44
2018-05-09T17:17:40.051Z,100745.05
2018-05-09T17:20:07.066Z,100746.05
2018-05-09T17:22:33.987Z,100735.33
2018-05-09T17:25:01.634Z,100739.36
2018-05-09T17:27:28.771Z,100736.27
2018-05-09T17:29:55.721Z,100740.08
2018-05-09T17:32:23.372Z,100733.81
2018-05-09T17:34:50.345Z,100732.68
2018-05-09T17:37:17.993Z,100729.37
2018-05-09T17:39:45.657Z,100729.06
2018-05-09T17:42:12.596Z,100726.42
2018-05-09T17:44:41.489Z,100726.88
2018-05-09T17:47:08.402Z,100723.92
2018-05-09T17:49:35.349Z,100720.64
2018-05-09T17:52:02.221Z,100724.41
2018-05-09T17:54:29.115Z,100726.40
2018-05-09T17:56:56.049Z,100730.22
2018-05-09T17:59:23.731Z,100729.73
2018-05-09T18:01:50.631Z,100732.36
2018-05-09T18:04:17.576Z,100729.73
2018-05-09T18:06:44.460Z,100729.56
2018-05-09T18:09:11.382Z,100727.16
2018-05-09T18:11:38.405Z,100723.41
2018-05-09T18:14:05.287Z,100724.98
2018-05-09T18:16:32.217Z,100731.38
2018-05-09T18:18:59.946Z,100729.96
2018-05-09T18:21:26.912Z,100736.14
2018-05-09T18:23:53.894Z,100746.71
2018-05-09T18:26:20.836Z,100737.61
2018-05-09T18:28:48.488Z,100744.41
2018-05-09T18:31:15.361Z,100741.70
2018-05-09T18:33:42.859Z,100747.74
2018-05-09T18:36:09.738Z,100747.22
2018-05-09T18:38:37.363Z,100750.66
2018-05-09T18:41:04.424Z,100756.23
2018-05-09T18:43:31.292Z,100752.86
2018-05-09T18:45:59.002Z,100750.61
2018-05-09T18:48:25.941Z,100752.11
2018-05-09T18:50:52.832Z,100746.13
2018-05-09T18:53:19.742Z,100748.41
2018-05-09T18:55:46.675Z,100749.53
2018-05-09T18:58:13.641Z,100753.92
2018-05-09T19:00:40.558Z,100750.13
2018-05-09T19:03:07.520Z,100757.39
2018-05-09T19:05:34.420Z,100748.29
2018-05-09T19:08:02.061Z,100754.28
2018-05-09T19:10:29.000Z,100755.13
2018-05-09T19:12:56.637Z,100753.62
2018-05-09T19:15:23.654Z,100753.84
2018-05-09T19:17:50.886Z,100761.06
2018-05-09T19:20:17.784Z,100765.56
2018-05-09T19:22:44.680Z,100758.14
2018-05-09T19:25:11.619Z,100761.45
2018-05-09T19:27:38.547Z,100768.05
2018-05-09T19:30:05.435Z,100765.47
2018-05-09T19:32:33.111Z,100765.62
2018-05-09T19:35:00.754Z,100770.19
2018-05-09T19:37:28.215Z,100770.94
2018-05-09T19:39:55.487Z,100772.48
2018-05-09T19:42:22.388Z,100767.86
2018-05-09T19:44:49.264Z,100775.02
2018-05-09T19:47:16.950Z,100774.19
2018-05-09T19:49:43.836Z,100772.95
2018-05-09T19:52:10.738Z,100771.36
2018-05-09T19:54:37.714Z,100769.91
2018-05-09T19:57:04.600Z,100771.89
2018-05-09T19:59:31.483Z,100773.61
2018-05-09T20:01:58.420Z,100771.08
2018-05-09T20:04:25.293Z,100772.60
2018-05-09T20:06:52.272Z,100769.21
2018-05-09T20:09:19.556Z,100769.61
2018-05-09T20:11:47.183Z,100766.66
2018-05-09T20:14:14.072Z,100769.55
2018-05-09T20:16:41.014Z,100769.41
2018-05-09T20:19:08.676Z,100771.25
2018-05-09T20:21:36.299Z,100772.81
2018-05-09T20:24:03.486Z,100770.39
2018-05-09T20:26:30.382Z,100772.45
2018-05-09T20:29:01.205Z,100772.63
2018-05-09T20:31:52.780Z,100774.92
2018-05-09T20:34:19.687Z,100775.09
2018-05-09T20:36:46.583Z,100774.22
2018-05-09T20:39:13.664Z,100772.63
2018-05-09T20:41:40.553Z,100767.41
2018-05-09T20:44:07.441Z,100761.45
2018-05-09T20:46:34.376Z,100757.66
2018-05-09T20:49:01.266Z,100757.28
2018-05-09T20:51:46.468Z,100763.52
2018-05-09T20:54:13.335Z,100756.86
2018-05-09T20:56:40.219Z,100753.67
2018-05-09T20:59:07.223Z,100758.02
2018-05-09T21:01:47.259Z,100754.62
2018-05-09T21:04:14.292Z,100760.20
2018-05-09T21:06:41.280Z,100749.11
2018-05-09T21:09:08.205Z,100749.97
2018-05-09T21:11:35.887Z,100750.77
2018-05-09T21:14:03.550Z,100751.06
2018-05-09T21:16:31.250Z,100753.25
2018-05-09T21:18:58.210Z,100750.00
2018-05-09T21:21:25.091Z,100752.68
2018-05-09T21:23:51.972Z,100754.70
2018-05-09T21:26:18.936Z,100758.16
2018-05-09T21:28:45.807Z,100752.22
2018-05-09T21:31:12.689Z,100752.52
2018-05-09T21:33:39.636Z,100755.81
2018-05-09T21:36:06.576Z,100756.58
2018-05-09T21:38:34.189Z,100749.84
2018-05-09T21:41:01.123Z,100756.18
2018-05-09T21:43:28.006Z,100749.94
2018-05-09T21:45:54.885Z,100754.36
2018-05-09T21:48:21.800Z,100754.43
2018-05-09T21:50:49.445Z,100756.14
2018-05-09T21:53:17.104Z,100754.03
2018-05-09T21:55:44.040Z,100751.36
2018-05-09T21:58:10.933Z,100752.31
2018-05-09T22:00:38.575Z,100747.73
2018-05-09T22:03:05.576Z,100744.40
2018-05-09T22:05:32.460Z,100747.77
2018-05-09T22:07:59.359Z,100748.30
2018-05-09T22:10:26.291Z,100748.66
2018-05-09T22:12:53.903Z,100745.03
2018-05-09T22:15:20.779Z,100745.19
2018-05-09T22:17:48.456Z,100736.25
2018-05-09T22:20:16.079Z,100740.64
2018-05-09T22:22:42.964Z,100737.05
2018-05-09T22:25:10.711Z,100733.16
2018-05-09T22:27:37.600Z,100732.89
2018-05-09T22:30:04.542Z,100731.73
2018-05-09T22:32:31.573Z,100729.33
2018-05-09T22:34:58.460Z,100729.22
2018-05-09T22:37:25.392Z,100724.23
2018-05-09T22:39:52.321Z,100726.55
2018-05-09T22:42:19.216Z,100719.33
2018-05-09T22:44:46.098Z,100730.57
2018-05-09T22:47:13.028Z,100719.91
2018-05-09T22:49:40.644Z,100715.28
2018-05-09T22:52:07.528Z,100709.97
2018-05-09T22:54:34.440Z,100710.39
2018-05-09T22:57:01.328Z,100709.89
2018-05-09T22:59:28.960Z,100705.84
2018-05-09T23:01:55.900Z,100704.27
2018-05-09T23:04:22.822Z,100703.32
2018-05-09T23:06:49.702Z,100693.48
2018-05-09T23:09:16.638Z,100700.20
2018-05-09T23:11:43.520Z,100695.83
2018-05-09T23:14:11.157Z,100695.63
2018-05-09T23:16:38.241Z,100690.61
2018-05-09T23:19:05.873Z,100689.98
2018-05-09T23:21:32.764Z,100691.81
2018-05-09T23:24:00.007Z,100687.19
2018-05-09T23:26:26.944Z,100688.66
2018-05-09T23:28:54.564Z,100689.61
2018-05-09T23:31:21.496Z,100690.76
2018-05-09T23:33:48.380Z,100680.51
2018-05-09T23:36:15.263Z,100681.75
2018-05-09T23:38:42.193Z,100675.23
2018-05-09T23:41:09.867Z,100672.89
2018-05-09T23:43:36.753Z,100670.55
2018-05-09T23:46:03.703Z,100668.98
2018-05-09T23:48:30.609Z,100670.44
2018-05-09T23:50:57.564Z,100674.68
2018-05-09T23:53:24.688Z,100669.57
2018-05-09T23:55:52.390Z,100663.66
2018-05-09T23:58:19.241Z,100665.61
